Terminal Aerodrome Forecast
Issued by NWS Memphis, TN

Home | Current Version | Previous Version | Text Only | Print | Product List | Glossary On
Versions: 1 2 3 4 5 6 7 8 9 10 11 12
000
FTUS44 KMEG 221120
TAFMKL
TAF
KMKL 221120Z 2212/2312 18006KT P6SM BKN100
     FM221500 17010G19KT P6SM OVC150
     FM230000 16005KT P6SM OVC250
     FM230800 16008KT P6SM OVC050
     FM231100 15007KT P6SM -RA OVC025=

USA.gov is the U.S. government's official web portal to all federal, state and local government web resources and services.